Oak Grove, Oregon
Current Conditions -  °F | °C
As of 10:53 AM on Tuesday 27 Jan 2015 (Local Time) from KPDX Reporting Station
Haze Haze  
Wind Chill: 43°   Ceiling: 500
Heat Index: 45°   Visibility: 2mi
Dew Point: 44°   Wind: 5mph
Humidity: 97%   Direction: 90°E
Pressure: 30.15"   Gusts: NA
Location:  45.42°N, 122.64°W
Report Text: KPDX 271853Z 09004KT 2SM BR OVC005 07/07 A3015 RMK AO2 SFC VIS 6 SLP208 T00720067
Loading
Personal Weather Stations






























Interactive Weather Map New forecast layout! Learn more

10-Day Weather Forecast

Advertisements
Track Severe Weather on mobile